Time;durP1;ratioP1;P1;durP2;ratioP2;P2;SDS_P1;SDS_P2;PMS_P1;PMS_P2;Temp;Humidity;BMP_temperature;BMP_pressure;BME280_temperature;BME280_humidity;BME280_pressure;Samples;Min_cycle;Max_cycle;Signal;HPM_P1;HPM_P2
2021/05/05 00:01:04;;;;;;;0.95;0.63;;;23.80;29.30;;;;;;5009929;28;20046;-54
2021/05/05 00:03:30;;;;;;;0.90;0.60;;;23.80;29.30;;;;;;5011935;28;20030;-58
2021/05/05 00:05:57;;;;;;;2.00;0.70;;;23.70;29.30;;;;;;5011163;28;20180;-56
2021/05/05 00:08:23;;;;;;;1.48;0.63;;;23.70;29.20;;;;;;5010097;28;20038;-56
2021/05/05 00:10:50;;;;;;;0.80;0.60;;;23.70;29.30;;;;;;5012323;28;20022;-57
2021/05/05 00:13:17;;;;;;;0.90;0.50;;;23.70;29.30;;;;;;5011698;28;20124;-55
2021/05/05 00:15:44;;;;;;;0.68;0.50;;;23.70;29.30;;;;;;5011362;28;20102;-52
2021/05/05 00:18:09;;;;;;;0.45;0.35;;;23.70;29.30;;;;;;5011117;28;20041;-52
2021/05/05 00:20:36;;;;;;;0.60;0.40;;;23.60;29.20;;;;;;5011420;28;20025;-56
2021/05/05 00:23:02;;;;;;;0.85;0.52;;;23.70;29.30;;;;;;5010671;28;20357;-56
2021/05/05 00:25:28;;;;;;;1.60;0.52;;;23.70;29.30;;;;;;5010575;28;20030;-53
2021/05/05 00:27:54;;;;;;;1.13;0.63;;;23.60;29.20;;;;;;5011820;28;20040;-59
2021/05/05 00:30:22;;;;;;;1.10;0.60;;;23.60;29.20;;;;;;5011744;28;20030;-56
2021/05/05 00:32:49;;;;;;;1.02;0.50;;;23.70;29.30;;;;;;5010874;28;20500;-55
2021/05/05 00:35:16;;;;;;;2.05;0.50;;;23.70;29.30;;;;;;5011605;28;20029;-56
2021/05/05 00:37:42;;;;;;;1.50;0.43;;;23.60;29.20;;;;;;5012021;28;20030;-51
2021/05/05 00:40:10;;;;;;;1.00;0.50;;;23.60;29.20;;;;;;5015509;28;20048;-52
2021/05/05 00:42:36;;;;;;;1.40;0.63;;;23.60;29.20;;;;;;5025110;28;20056;-56
2021/05/05 00:45:08;;;;;;;0.95;0.70;;;23.60;29.20;;;;;;5012885;28;20029;-56
2021/05/05 00:47:34;;;;;;;1.42;0.73;;;23.60;29.20;;;;;;5014386;28;20129;-53
2021/05/05 00:50:00;;;;;;;1.25;0.52;;;23.60;29.20;;;;;;5015369;28;20125;-53
2021/05/05 00:52:26;;;;;;;1.23;0.60;;;23.60;29.20;;;;;;5014703;28;20029;-53
2021/05/05 00:54:52;;;;;;;1.48;0.60;;;23.60;29.20;;;;;;5015282;28;20046;-54
2021/05/05 00:57:19;;;;;;;0.55;0.32;;;23.50;29.20;;;;;;5013594;28;20037;-56
2021/05/05 00:59:47;;;;;;;1.17;0.50;;;23.50;29.20;;;;;;5013840;28;20095;-51
2021/05/05 01:02:14;;;;;;;1.13;0.65;;;23.50;29.20;;;;;;5015160;28;20033;-56
2021/05/05 01:04:40;;;;;;;0.55;0.30;;;23.50;29.30;;;;;;5014773;28;20018;-55
2021/05/05 01:07:06;;;;;;;1.55;0.52;;;23.50;29.20;;;;;;5014098;28;20057;-50
2021/05/05 01:09:32;;;;;;;0.77;0.47;;;23.50;29.20;;;;;;5015014;28;20041;-50
2021/05/05 01:11:58;;;;;;;1.00;0.50;;;23.50;29.20;;;;;;5013724;28;20164;-57
2021/05/05 01:14:24;;;;;;;1.10;0.60;;;23.50;29.20;;;;;;5012744;28;20328;-55
2021/05/05 01:16:53;;;;;;;1.52;0.60;;;23.50;29.20;;;;;;5014786;28;20038;-56
2021/05/05 01:19:20;;;;;;;0.77;0.60;;;23.50;29.20;;;;;;5014400;28;20146;-50
2021/05/05 01:21:46;;;;;;;1.20;0.60;;;23.50;29.30;;;;;;5013555;28;20040;-53
2021/05/05 01:24:12;;;;;;;1.25;0.60;;;23.50;29.20;;;;;;5012634;28;20345;-53
2021/05/05 01:26:39;;;;;;;0.75;0.40;;;23.50;29.20;;;;;;5013741;28;20109;-51
2021/05/05 01:29:06;;;;;;;0.98;0.57;;;23.50;29.20;;;;;;5014296;28;20513;-53
2021/05/05 01:31:32;;;;;;;0.98;0.50;;;23.40;29.20;;;;;;5013114;28;20026;-53
2021/05/05 01:33:58;;;;;;;0.77;0.40;;;23.40;29.20;;;;;;4996175;28;20025;-54
2021/05/05 01:36:30;;;;;;;0.90;0.55;;;23.40;29.20;;;;;;5013178;28;20112;-53
2021/05/05 01:38:56;;;;;;;0.70;0.40;;;23.40;29.20;;;;;;5014021;28;20025;-59
2021/05/05 01:41:22;;;;;;;1.05;0.50;;;23.40;29.20;;;;;;5014855;28;20037;-54
2021/05/05 01:43:48;;;;;;;0.73;0.40;;;23.40;29.20;;;;;;5015045;28;20029;-55
2021/05/05 01:46:20;;;;;;;0.45;0.30;;;23.40;29.20;;;;;;5014148;28;20081;-50
2021/05/05 01:48:46;;;;;;;0.77;0.40;;;23.40;29.20;;;;;;5011489;28;20053;-55
2021/05/05 01:51:13;;;;;;;2.47;0.50;;;23.40;29.20;;;;;;5013760;28;20098;-55
2021/05/05 01:53:40;;;;;;;1.02;0.40;;;23.40;29.20;;;;;;5012564;28;20037;-53
2021/05/05 01:56:07;;;;;;;0.95;0.40;;;23.40;29.70;;;;;;4996373;28;20022;-54
2021/05/05 01:58:34;;;;;;;0.43;0.28;;;23.40;29.20;;;;;;5012600;28;20030;-54
2021/05/05 02:01:01;;;;;;;0.63;0.40;;;23.30;29.20;;;;;;5013810;28;20041;-49
2021/05/05 02:03:27;;;;;;;0.52;0.30;;;23.30;29.20;;;;;;5012784;28;20105;-51
2021/05/05 02:05:59;;;;;;;0.63;0.38;;;23.30;29.20;;;;;;5013451;28;20078;-51
2021/05/05 02:08:44;;;;;;;;;;;23.30;29.20;;;;;;5011931;28;20053;-51
2021/05/05 02:11:09;;;;;;;1.13;0.45;;;23.30;29.30;;;;;;5012705;28;20361;-55
2021/05/05 02:13:36;;;;;;;1.42;0.63;;;23.30;29.70;;;;;;5012375;28;20041;-57
2021/05/05 02:16:03;;;;;;;0.80;0.40;;;23.30;29.30;;;;;;5012159;28;20406;-55
2021/05/05 02:18:30;;;;;;;1.08;0.50;;;23.30;29.50;;;;;;5012482;28;20441;-53
2021/05/05 02:20:57;;;;;;;1.02;0.43;;;23.30;29.30;;;;;;5012324;28;20045;-56
2021/05/05 02:23:23;;;;;;;0.73;0.40;;;23.20;29.20;;;;;;5011495;28;20083;-56
2021/05/05 02:25:49;;;;;;;1.35;0.43;;;23.30;29.30;;;;;;5013541;28;20104;-58
2021/05/05 02:28:15;;;;;;;1.30;0.40;;;23.30;29.30;;;;;;5012392;28;20118;-53
2021/05/05 02:30:49;;;;;;;1.40;0.60;;;23.30;29.30;;;;;;5011775;28;20040;-49
2021/05/05 02:33:17;;;;;;;0.85;0.40;;;23.30;29.30;;;;;;5011509;28;20096;-52
2021/05/05 02:35:45;;;;;;;0.85;0.40;;;23.20;29.30;;;;;;5009700;28;20034;-52
2021/05/05 02:38:13;;;;;;;1.08;0.40;;;23.20;29.20;;;;;;5013400;28;20026;-55
2021/05/05 02:40:40;;;;;;;1.05;0.40;;;23.20;29.20;;;;;;5013729;28;20109;-56
2021/05/05 02:43:05;;;;;;;1.80;0.80;;;23.30;29.30;;;;;;5013087;28;20017;-53
2021/05/05 02:45:31;;;;;;;0.93;0.52;;;23.20;29.20;;;;;;5012932;28;20033;-53
2021/05/05 02:47:58;;;;;;;0.65;0.50;;;23.20;29.20;;;;;;5013188;28;20440;-55
2021/05/05 02:50:24;;;;;;;1.05;0.47;;;23.20;29.30;;;;;;5011799;28;20017;-53
2021/05/05 02:52:50;;;;;;;0.95;0.32;;;23.20;29.30;;;;;;5012664;28;20014;-52
2021/05/05 02:55:16;;;;;;;1.50;0.60;;;23.20;29.30;;;;;;5011144;28;20040;-54
2021/05/05 02:57:46;;;;;;;0.73;0.40;;;23.20;29.30;;;;;;5010865;28;20030;-56
2021/05/05 03:00:12;;;;;;;1.80;0.77;;;23.20;29.30;;;;;;5012186;28;20037;-57
2021/05/05 03:02:38;;;;;;;1.67;0.70;;;23.20;29.30;;;;;;5012267;28;20180;-52
2021/05/05 03:05:06;;;;;;;1.60;0.60;;;23.20;29.30;;;;;;5012593;28;20037;-52
2021/05/05 03:07:32;;;;;;;1.23;0.55;;;23.20;29.40;;;;;;5012501;28;20034;-55
2021/05/05 03:09:58;;;;;;;0.93;0.52;;;23.20;29.40;;;;;;5012213;28;20049;-49
2021/05/05 03:12:24;;;;;;;1.27;0.60;;;23.10;29.40;;;;;;5012027;28;20446;-56
2021/05/05 03:14:50;;;;;;;1.02;0.40;;;23.10;29.40;;;;;;5012203;28;20422;-56
2021/05/05 03:17:16;;;;;;;1.27;0.40;;;23.10;29.40;;;;;;5013480;28;20034;-54
2021/05/05 03:19:42;;;;;;;2.92;0.70;;;23.10;29.40;;;;;;5012448;28;20057;-51
2021/05/05 03:22:07;;;;;;;1.63;0.57;;;23.10;29.50;;;;;;5010240;28;20036;-57
2021/05/05 03:24:34;;;;;;;0.98;0.40;;;23.10;29.40;;;;;;5012538;28;20025;-56
2021/05/05 03:27:00;;;;;;;1.83;0.57;;;23.10;29.40;;;;;;5011626;28;20135;-49
2021/05/05 03:29:26;;;;;;;1.02;0.60;;;23.10;29.50;;;;;;5011475;28;20446;-57
2021/05/05 03:31:52;;;;;;;1.90;0.50;;;23.10;29.50;;;;;;5012017;28;20088;-54
2021/05/05 03:34:18;;;;;;;0.75;0.43;;;23.10;29.50;;;;;;5011653;28;20433;-49
2021/05/05 03:36:46;;;;;;;0.60;0.40;;;23.10;29.50;;;;;;5012065;28;20334;-52
2021/05/05 03:39:12;;;;;;;0.90;0.47;;;23.10;29.50;;;;;;5012396;28;20361;-51
2021/05/05 03:41:37;;;;;;;1.80;0.55;;;23.00;29.50;;;;;;5012089;28;20044;-51
2021/05/05 03:44:05;;;;;;;1.65;0.60;;;23.00;29.50;;;;;;5012321;28;20404;-50
2021/05/05 03:46:31;;;;;;;1.10;0.40;;;23.00;29.50;;;;;;5012028;28;20077;-52
2021/05/05 03:48:57;;;;;;;1.15;0.47;;;23.00;29.50;;;;;;5011944;28;20055;-56
2021/05/05 03:51:24;;;;;;;1.67;0.60;;;23.00;29.50;;;;;;5010614;28;20029;-55
2021/05/05 03:53:50;;;;;;;1.70;0.50;;;23.00;29.50;;;;;;5010535;28;20394;-54
2021/05/05 03:56:16;;;;;;;1.88;0.60;;;23.00;29.50;;;;;;5010499;28;20080;-56
2021/05/05 03:58:41;;;;;;;1.15;0.60;;;23.00;29.60;;;;;;5011664;28;20531;-53
2021/05/05 04:01:07;;;;;;;1.17;0.30;;;23.00;29.50;;;;;;5011576;28;20128;-55
2021/05/05 04:03:33;;;;;;;1.20;0.50;;;23.00;29.60;;;;;;5010927;28;20030;-53
2021/05/05 04:05:59;;;;;;;1.75;0.50;;;23.00;29.60;;;;;;5012540;28;20057;-52
2021/05/05 04:08:26;;;;;;;1.17;0.40;;;23.00;29.60;;;;;;5004791;28;20334;-57
2021/05/05 04:10:51;;;;;;;1.75;0.60;;;23.00;29.60;;;;;;5011316;28;20108;-54
2021/05/05 04:13:17;;;;;;;1.27;0.60;;;23.00;29.60;;;;;;5010912;28;20405;-54
2021/05/05 04:15:43;;;;;;;0.95;0.45;;;22.90;29.60;;;;;;5011444;28;20485;-53
2021/05/05 04:18:09;;;;;;;1.52;0.55;;;22.90;29.60;;;;;;5010467;28;20038;-53
2021/05/05 04:20:35;;;;;;;0.82;0.47;;;22.90;29.60;;;;;;5011175;28;20113;-49
2021/05/05 04:23:00;;;;;;;1.55;0.70;;;22.90;29.60;;;;;;5006385;28;20025;-51
2021/05/05 04:25:26;;;;;;;1.65;0.50;;;22.90;29.60;;;;;;5011311;28;20462;-50
2021/05/05 04:27:52;;;;;;;1.17;0.57;;;22.90;29.60;;;;;;5011321;28;20030;-52
2021/05/05 04:30:19;;;;;;;1.33;0.60;;;22.90;29.60;;;;;;5011120;28;20065;-57
2021/05/05 04:32:47;;;;;;;1.38;0.70;;;22.90;29.60;;;;;;5011955;28;20030;-53
2021/05/05 04:35:13;;;;;;;1.85;0.77;;;22.90;29.60;;;;;;5011281;28;20034;-49
2021/05/05 04:37:39;;;;;;;1.20;0.57;;;22.90;29.60;;;;;;5011244;28;20326;-51
2021/05/05 04:40:06;;;;;;;1.20;0.50;;;22.90;29.50;;;;;;5011717;28;20065;-52
2021/05/05 04:42:32;;;;;;;1.00;0.50;;;22.90;29.50;;;;;;5011687;28;20511;-52
2021/05/05 04:45:01;;;;;;;2.67;0.80;;;22.90;29.60;;;;;;5011874;28;20041;-53
2021/05/05 04:47:27;;;;;;;2.15;0.60;;;22.90;29.60;;;;;;5012373;28;20044;-54
2021/05/05 04:49:53;;;;;;;1.23;0.57;;;22.90;29.50;;;;;;5012095;28;20099;-50
2021/05/05 04:52:19;;;;;;;1.67;0.30;;;22.90;29.50;;;;;;5010724;28;20037;-51
2021/05/05 04:54:45;;;;;;;1.25;0.50;;;22.90;29.50;;;;;;5011550;28;21604;-56
2021/05/05 04:57:11;;;;;;;1.25;0.60;;;22.90;29.50;;;;;;5010248;28;20022;-55
2021/05/05 04:59:37;;;;;;;1.38;0.57;;;22.90;29.60;;;;;;5011674;28;20057;-55
2021/05/05 05:02:04;;;;;;;1.73;0.57;;;22.80;29.50;;;;;;5010680;28;20034;-54
2021/05/05 05:04:30;;;;;;;1.88;0.52;;;22.90;29.60;;;;;;5011321;28;20140;-49
2021/05/05 05:06:55;;;;;;;1.35;0.40;;;22.80;29.60;;;;;;5010765;28;20121;-50
2021/05/05 05:09:21;;;;;;;2.05;0.73;;;22.80;29.60;;;;;;5010984;28;20057;-52
2021/05/05 05:11:47;;;;;;;1.30;0.50;;;22.80;29.60;;;;;;5010321;28;20408;-51
2021/05/05 05:14:13;;;;;;;1.23;0.50;;;22.80;29.60;;;;;;5011398;28;20026;-51
2021/05/05 05:16:39;;;;;;;0.90;0.40;;;22.80;29.60;;;;;;5009510;28;20366;-47
2021/05/05 05:19:05;;;;;;;3.72;0.77;;;22.80;29.60;;;;;;5011539;28;20030;-49
2021/05/05 05:21:31;;;;;;;1.58;0.77;;;22.80;29.70;;;;;;5011668;28;20041;-57
2021/05/05 05:23:57;;;;;;;2.00;0.75;;;22.80;29.70;;;;;;5010789;28;20386;-52
2021/05/05 05:26:23;;;;;;;2.42;0.73;;;22.80;29.70;;;;;;5014143;28;20022;-51
2021/05/05 05:28:48;;;;;;;2.15;0.60;;;22.80;29.60;;;;;;5014894;28;20076;-58
2021/05/05 05:31:14;;;;;;;1.45;0.80;;;22.80;29.60;;;;;;5013199;28;20026;-58
2021/05/05 05:33:40;;;;;;;2.85;0.80;;;22.80;29.60;;;;;;5014610;28;20029;-55
2021/05/05 05:36:06;;;;;;;2.97;1.00;;;22.80;29.60;;;;;;5013897;28;20504;-53
2021/05/05 05:38:32;;;;;;;2.90;0.90;;;22.80;29.60;;;;;;5013362;28;20033;-54
2021/05/05 05:40:57;;;;;;;2.85;0.98;;;22.80;29.60;;;;;;5013987;28;20033;-55
2021/05/05 05:43:23;;;;;;;2.88;0.70;;;22.80;29.60;;;;;;5014542;28;20474;-55
2021/05/05 05:45:49;;;;;;;1.88;0.80;;;22.80;29.50;;;;;;5014609;28;21098;-51
2021/05/05 05:48:15;;;;;;;2.10;0.95;;;22.80;29.50;;;;;;5013316;28;20033;-56
2021/05/05 05:50:40;;;;;;;2.72;0.93;;;22.80;29.60;;;;;;5014535;28;20026;-50
2021/05/05 05:53:06;;;;;;;1.88;0.60;;;22.80;29.60;;;;;;5014423;28;20084;-53
2021/05/05 05:55:33;;;;;;;2.95;0.88;;;22.70;29.50;;;;;;5013741;28;20026;-58
2021/05/05 05:57:59;;;;;;;2.28;0.90;;;22.80;29.60;;;;;;5012155;28;20095;-55
2021/05/05 06:00:25;;;;;;;2.28;0.90;;;22.70;29.60;;;;;;5013815;28;20045;-54
2021/05/05 06:02:51;;;;;;;2.80;1.15;;;22.70;29.60;;;;;;5012284;28;20087;-52
2021/05/05 06:05:17;;;;;;;4.15;0.98;;;22.80;29.60;;;;;;5013210;28;20036;-48
2021/05/05 06:07:43;;;;;;;3.28;0.90;;;22.70;29.60;;;;;;5012303;28;20041;-52
2021/05/05 06:10:13;;;;;;;2.92;0.90;;;22.70;29.60;;;;;;5013107;28;20064;-52
2021/05/05 06:12:40;;;;;;;3.30;0.95;;;22.70;29.60;;;;;;5012963;28;20041;-54
2021/05/05 06:15:07;;;;;;;2.42;1.00;;;22.70;29.60;;;;;;5014166;28;20022;-54
2021/05/05 06:17:33;;;;;;;2.13;0.85;;;22.70;29.60;;;;;;5014280;28;20048;-52
2021/05/05 06:19:59;;;;;;;3.13;1.10;;;22.70;29.60;;;;;;5014581;28;20038;-51
2021/05/05 06:22:25;;;;;;;1.80;0.85;;;22.70;29.70;;;;;;5011969;28;20036;-54
2021/05/05 06:24:50;;;;;;;2.67;1.17;;;22.70;29.60;;;;;;5014511;28;20053;-52
2021/05/05 06:27:16;;;;;;;1.63;0.80;;;22.70;29.60;;;;;;5014634;28;20452;-55
2021/05/05 06:29:42;;;;;;;2.13;0.82;;;22.70;29.60;;;;;;5013988;28;20176;-47
2021/05/05 06:32:08;;;;;;;2.28;1.10;;;22.70;29.60;;;;;;5013986;28;20045;-54
2021/05/05 06:34:34;;;;;;;1.25;0.65;;;22.70;29.60;;;;;;5014234;28;20033;-54
2021/05/05 06:37:02;;;;;;;3.22;0.90;;;22.70;29.60;;;;;;5013347;28;20438;-49
2021/05/05 06:39:29;;;;;;;1.33;0.70;;;22.70;29.50;;;;;;5010969;28;20048;-55
2021/05/05 06:41:55;;;;;;;1.05;0.80;;;22.70;29.50;;;;;;5014406;28;20022;-50
2021/05/05 06:44:20;;;;;;;1.20;0.60;;;22.70;29.50;;;;;;5008546;28;20080;-53
2021/05/05 06:46:48;;;;;;;2.33;0.90;;;22.70;29.50;;;;;;5011977;28;20029;-54
2021/05/05 06:49:14;;;;;;;2.25;0.80;;;22.70;29.50;;;;;;5014092;28;20191;-53
2021/05/05 06:51:40;;;;;;;1.70;0.93;;;22.70;29.50;;;;;;5013142;28;20109;-53
2021/05/05 06:54:07;;;;;;;1.67;0.70;;;22.70;29.40;;;;;;5013694;28;20036;-52
2021/05/05 06:56:34;;;;;;;2.92;0.73;;;22.70;29.40;;;;;;5011688;28;20049;-54
2021/05/05 06:59:00;;;;;;;2.00;0.60;;;22.70;29.40;;;;;;5013257;28;20105;-51
2021/05/05 07:01:25;;;;;;;1.23;0.65;;;22.70;29.30;;;;;;5014386;28;20065;-51
2021/05/05 07:03:51;;;;;;;1.77;0.70;;;22.70;29.30;;;;;;5013767;28;20080;-51
2021/05/05 07:06:17;;;;;;;2.05;0.95;;;22.70;29.30;;;;;;5013294;28;20022;-50
2021/05/05 07:08:43;;;;;;;1.88;0.70;;;22.70;29.30;;;;;;5013849;28;20124;-55
2021/05/05 07:11:09;;;;;;;1.48;0.60;;;22.70;29.30;;;;;;5014055;28;20113;-51
2021/05/05 07:13:36;;;;;;;2.20;0.70;;;22.70;29.30;;;;;;5013533;28;20108;-53
2021/05/05 07:16:02;;;;;;;1.67;0.70;;;22.70;29.30;;;;;;5013817;28;20022;-57
2021/05/05 07:18:28;;;;;;;1.52;0.70;;;22.70;29.20;;;;;;5012161;28;20026;-58
2021/05/05 07:20:55;;;;;;;2.15;0.80;;;22.70;29.20;;;;;;5012070;28;20038;-53
2021/05/05 07:23:21;;;;;;;1.70;0.80;;;22.70;29.20;;;;;;5011911;28;20042;-57
2021/05/05 07:25:47;;;;;;;3.25;0.98;;;22.70;29.20;;;;;;5017619;28;20034;-56
2021/05/05 07:28:13;;;;;;;2.20;0.55;;;22.70;29.20;;;;;;5013401;28;20026;-54
2021/05/05 07:30:39;;;;;;;2.10;1.00;;;22.70;29.20;;;;;;5013554;28;20072;-56
2021/05/05 07:33:05;;;;;;;2.28;0.80;;;22.70;29.20;;;;;;5013236;28;20350;-51
2021/05/05 07:35:31;;;;;;;2.80;1.05;;;22.70;29.10;;;;;;5012965;28;20040;-52
2021/05/05 07:51:17;;;;;;;1.92;0.82;;;22.70;29.20;;;;;;4999126;28;20099;-55
2021/05/05 07:53:44;;;;;;;2.38;0.80;;;22.70;29.10;;;;;;5012993;28;20034;-57
2021/05/05 07:56:10;;;;;;;1.55;0.73;;;22.70;29.10;;;;;;5012223;28;20514;-55
2021/05/05 07:58:36;;;;;;;2.10;0.90;;;22.70;29.10;;;;;;4998519;28;20117;-55
2021/05/05 08:01:02;;;;;;;1.33;0.70;;;22.60;29.10;;;;;;5011716;28;20393;-54
2021/05/05 08:03:28;;;;;;;0.95;0.60;;;22.60;29.10;;;;;;5010114;28;20152;-49
2021/05/05 08:05:54;;;;;;;1.92;0.68;;;22.60;29.20;;;;;;5011406;28;20501;-53
2021/05/05 08:08:20;;;;;;;1.50;0.70;;;22.60;29.20;;;;;;5010309;28;20053;-53
2021/05/05 08:10:46;;;;;;;2.42;0.77;;;22.50;29.20;;;;;;4990952;28;20405;-49
2021/05/05 08:13:12;;;;;;;1.30;0.50;;;22.50;29.20;;;;;;5012900;28;20025;-53
2021/05/05 08:15:38;;;;;;;2.75;0.77;;;22.50;29.30;;;;;;5012735;28;20096;-56
2021/05/05 08:18:06;;;;;;;1.70;0.77;;;22.50;29.30;;;;;;5009473;28;20464;-55
2021/05/05 08:20:34;;;;;;;1.40;0.60;;;22.50;29.30;;;;;;5010988;28;20060;-52
2021/05/05 08:23:10;;;;;;;1.58;0.70;;;22.50;29.30;;;;;;5014804;28;20049;-60
2021/05/05 08:25:43;;;;;;;1.42;0.70;;;22.50;29.30;;;;;;5016078;28;20116;-53
2021/05/05 08:28:10;;;;;;;1.63;0.50;;;22.50;29.30;;;;;;5012875;28;20061;-54
2021/05/05 08:30:35;;;;;;;1.55;0.68;;;22.60;29.30;;;;;;5011670;28;20050;-52
2021/05/05 08:33:02;;;;;;;1.95;0.60;;;22.70;29.30;;;;;;5013587;28;20018;-51
2021/05/05 08:35:28;;;;;;;1.70;0.60;;;22.80;29.30;;;;;;5011538;28;20046;-55
2021/05/05 08:37:54;;;;;;;1.85;0.75;;;22.90;29.30;;;;;;5013129;28;20037;-51
2021/05/05 08:40:21;;;;;;;1.85;0.85;;;23.00;29.30;;;;;;5012174;28;20040;-52
2021/05/05 08:42:48;;;;;;;2.70;0.80;;;23.10;29.20;;;;;;5016119;28;20117;-58
2021/05/05 08:45:19;;;;;;;1.42;0.73;;;23.10;29.20;;;;;;5011743;28;20448;-52
2021/05/05 08:47:48;;;;;;;1.10;0.55;;;23.20;29.10;;;;;;5011606;28;20037;-54
2021/05/05 08:50:17;;;;;;;1.27;0.60;;;23.30;29.10;;;;;;5010561;28;20457;-54
2021/05/05 08:52:43;;;;;;;1.40;0.60;;;23.40;29.10;;;;;;5011944;28;20030;-56
2021/05/05 08:55:12;;;;;;;1.00;0.50;;;23.50;29.10;;;;;;5011758;28;20030;-52
2021/05/05 08:57:38;;;;;;;1.83;0.70;;;23.60;29.00;;;;;;5010705;28;20461;-52
2021/05/05 09:00:09;;;;;;;1.05;0.68;;;23.70;29.00;;;;;;5015449;28;20042;-55
2021/05/05 09:02:35;;;;;;;0.88;0.40;;;23.80;28.90;;;;;;5013538;28;20111;-58
2021/05/05 09:05:05;;;;;;;1.10;0.50;;;23.80;28.90;;;;;;5006018;28;20072;-54
2021/05/05 09:07:36;;;;;;;1.17;0.50;;;23.90;28.90;;;;;;5012604;28;20029;-53
2021/05/05 09:10:11;;;;;;;1.58;0.60;;;23.90;28.80;;;;;;5013803;28;20048;-52
2021/05/05 09:12:42;;;;;;;2.20;0.55;;;24.00;28.80;;;;;;5014283;28;20034;-53
2021/05/05 09:15:19;;;;;;;1.75;0.70;;;24.00;28.70;;;;;;5012591;28;20033;-56
2021/05/05 09:17:48;;;;;;;0.95;0.43;;;24.00;28.70;;;;;;5013813;28;20049;-57
2021/05/05 09:20:14;;;;;;;1.45;0.60;;;24.10;28.70;;;;;;5013090;28;20052;-54
2021/05/05 09:22:50;;;;;;;1.13;0.60;;;24.10;28.70;;;;;;5006712;28;20305;-52
2021/05/05 09:25:36;;;;;;;1.40;0.70;;;24.20;28.60;;;;;;5012742;28;20068;-53
2021/05/05 09:28:16;;;;;;;0.88;0.40;;;24.30;28.60;;;;;;5003887;28;20034;-55
2021/05/05 09:30:44;;;;;;;0.65;0.38;;;24.30;28.60;;;;;;5010650;28;20038;-59
2021/05/05 09:33:26;;;;;;;1.08;0.50;;;24.30;28.50;;;;;;5014447;28;20041;-57
2021/05/05 09:35:57;;;;;;;1.00;0.45;;;24.30;28.50;;;;;;5008279;28;20030;-52
2021/05/05 09:38:41;;;;;;;2.90;0.50;;;24.30;28.50;;;;;;5012217;28;20053;-58
2021/05/05 09:41:15;;;;;;;1.90;0.52;;;24.40;28.50;;;;;;5006884;28;20027;-52
2021/05/05 09:43:42;;;;;;;1.58;0.65;;;24.40;28.60;;;;;;5010768;28;20069;-48
2021/05/05 09:46:29;;;;;;;0.80;0.50;;;24.40;28.60;;;;;;5011251;28;20034;-55
2021/05/05 09:49:15;;;;;;;1.45;0.60;;;24.30;28.50;;;;;;5009364;28;20081;-56
2021/05/05 09:52:01;;;;;;;2.78;0.70;;;24.40;28.50;;;;;;5013750;28;20377;-53
2021/05/05 09:54:30;;;;;;;1.88;0.80;;;24.40;28.50;;;;;;5012632;28;20052;-55
2021/05/05 09:57:18;;;;;;;2.15;0.57;;;24.40;28.50;;;;;;5011047;28;20030;-57
2021/05/05 10:00:05;;;;;;;1.60;0.77;;;24.40;28.50;;;;;;5012938;28;20046;-52
2021/05/05 10:02:51;;;;;;;1.50;0.70;;;24.30;28.50;;;;;;5013433;28;20072;-53
2021/05/05 10:05:21;;;;;;;2.53;0.88;;;24.30;28.60;;;;;;5013593;28;20133;-56
2021/05/05 10:07:59;;;;;;;1.40;0.70;;;24.20;28.60;;;;;;5011508;28;20022;-55
2021/05/05 10:10:30;;;;;;;1.20;0.57;;;24.20;28.70;;;;;;5009041;28;20041;-60
2021/05/05 10:13:00;;;;;;;1.38;0.70;;;24.10;28.60;;;;;;5013505;28;20037;-53
2021/05/05 10:15:30;;;;;;;1.13;0.65;;;24.10;28.70;;;;;;5015082;28;20034;-53
2021/05/05 10:17:56;;;;;;;1.30;0.60;;;24.10;28.70;;;;;;5012920;28;20025;-52
2021/05/05 10:20:25;;;;;;;1.75;0.80;;;24.00;28.70;;;;;;5013765;28;20030;-51
2021/05/05 10:22:58;;;;;;;1.25;0.65;;;24.00;28.80;;;;;;5013084;28;20026;-57
2021/05/05 10:25:24;;;;;;;1.52;0.60;;;24.00;28.80;;;;;;5010432;28;20396;-56
2021/05/05 10:27:51;;;;;;;2.88;0.73;;;24.00;28.80;;;;;;5007671;28;20069;-53
2021/05/05 10:30:29;;;;;;;1.00;0.50;;;23.90;28.80;;;;;;5009340;28;20441;-50
2021/05/05 10:32:56;;;;;;;1.50;0.68;;;23.90;28.80;;;;;;5013038;28;20137;-51
2021/05/05 10:35:23;;;;;;;1.00;0.50;;;23.90;28.90;;;;;;5008110;28;20052;-54
2021/05/05 10:37:56;;;;;;;1.95;0.75;;;23.90;28.90;;;;;;5008135;28;20037;-52
2021/05/05 10:40:33;;;;;;;1.23;0.60;;;23.80;28.90;;;;;;5010612;28;20334;-53
2021/05/05 10:43:08;;;;;;;0.88;0.50;;;23.80;28.90;;;;;;5012927;28;20049;-52
2021/05/05 10:45:45;;;;;;;1.88;0.73;;;23.80;29.00;;;;;;5009077;28;20022;-53
2021/05/05 10:48:13;;;;;;;1.70;0.75;;;23.80;29.00;;;;;;5011150;28;20042;-54
2021/05/05 10:50:48;;;;;;;2.10;0.68;;;23.80;29.00;;;;;;5012663;28;20122;-50
2021/05/05 10:53:15;;;;;;;1.15;0.70;;;23.80;29.00;;;;;;5012146;28;20116;-52
2021/05/05 10:55:47;;;;;;;1.60;0.70;;;23.70;29.10;;;;;;5012613;28;20041;-57
2021/05/05 10:58:17;;;;;;;3.72;0.50;;;23.70;29.10;;;;;;5008997;28;20049;-52
2021/05/05 11:00:55;;;;;;;2.13;0.70;;;23.70;29.10;;;;;;5010591;28;20449;-54
2021/05/05 11:03:42;;;;;;;1.85;0.77;;;23.70;29.10;;;;;;5012199;28;20116;-55
2021/05/05 11:06:30;;;;;;;1.23;0.70;;;23.70;29.10;;;;;;5012096;28;20042;-51
2021/05/05 11:09:03;;;;;;;1.65;0.70;;;23.70;29.10;;;;;;5013017;28;20045;-51
2021/05/05 11:11:43;;;;;;;2.22;0.60;;;23.60;29.10;;;;;;5011782;28;20053;-51
2021/05/05 11:14:09;;;;;;;2.47;0.70;;;23.60;29.10;;;;;;5010975;28;20476;-50
2021/05/05 11:19:37;;;;;;;1.40;0.50;;;23.60;29.20;;;;;;5009618;28;20029;-53
2021/05/05 11:22:23;;;;;;;1.67;0.70;;;23.60;29.20;;;;;;5008945;28;20034;-54
2021/05/05 11:24:53;;;;;;;2.53;0.70;;;23.60;29.20;;;;;;5001157;28;20053;-55
2021/05/05 11:27:46;;;;;;;1.50;0.68;;;23.60;29.20;;;;;;5009496;28;20113;-50
2021/05/05 11:30:38;;;;;;;1.77;0.60;;;23.60;29.20;;;;;;5011567;28;20095;-54
2021/05/05 11:33:05;;;;;;;2.80;0.85;;;23.60;29.30;;;;;;5012591;28;20044;-53
2021/05/05 11:35:32;;;;;;;1.75;0.73;;;23.60;29.30;;;;;;5013127;28;20034;-53
2021/05/05 11:38:09;;;;;;;1.00;0.52;;;23.50;29.30;;;;;;5013615;28;20421;-54
2021/05/05 11:40:35;;;;;;;1.88;0.73;;;23.50;29.30;;;;;;5013277;28;20068;-51
2021/05/05 11:43:18;;;;;;;2.67;0.70;;;23.50;29.30;;;;;;5012480;28;20417;-48
2021/05/05 11:45:52;;;;;;;1.77;0.75;;;23.50;29.30;;;;;;5011242;28;20056;-48
2021/05/05 11:48:24;;;;;;;;;;;23.50;29.30;;;;;;5013332;28;20017;-50
2021/05/05 11:50:50;;;;;;;2.70;0.70;;;23.40;29.30;;;;;;5009042;28;19952;-53
2021/05/05 11:53:31;;;;;;;1.98;0.70;;;23.40;29.40;;;;;;5010162;28;20058;-53
2021/05/05 11:55:57;;;;;;;1.35;0.60;;;23.40;29.70;;;;;;5009268;28;20036;-45
2021/05/05 11:58:25;;;;;;;2.35;0.82;;;23.40;29.70;;;;;;5009536;28;20069;-51
2021/05/05 12:00:52;;;;;;;1.13;0.55;;;23.40;29.80;;;;;;5010463;28;20049;-56
2021/05/05 12:03:24;;;;;;;4.00;1.40;;;23.40;29.90;;;;;;5010296;28;20048;-54
2021/05/05 12:05:52;;;;;;;3.65;1.52;;;23.50;30.00;;;;;;5009974;28;20089;-49
2021/05/05 12:08:26;;;;;;;4.15;1.35;;;23.50;30.40;;;;;;5010520;28;20425;-51
2021/05/05 12:11:01;;;;;;;6.00;2.60;;;23.60;30.70;;;;;;5006847;28;20034;-56
2021/05/05 12:13:44;;;;;;;6.72;2.15;;;23.60;31.00;;;;;;5008482;28;20030;-59
2021/05/05 12:16:34;;;;;;;3.55;1.77;;;23.70;31.50;;;;;;5006288;28;20420;-61
2021/05/05 12:19:10;;;;;;;3.90;1.52;;;23.70;31.10;;;;;;5011051;28;20045;-63
2021/05/05 12:21:37;;;;;;;4.32;1.35;;;23.80;31.00;;;;;;5009833;28;20042;-59
2021/05/05 12:24:04;;;;;;;3.83;1.30;;;23.90;30.90;;;;;;5011764;28;20038;-61
2021/05/05 12:26:37;;;;;;;2.45;1.17;;;23.90;30.80;;;;;;5008919;28;20044;-59
2021/05/05 12:29:09;;;;;;;2.83;1.10;;;24.00;30.70;;;;;;5010866;28;20132;-58
2021/05/05 12:31:37;;;;;;;1.70;0.95;;;24.00;30.60;;;;;;5011476;28;20037;-61
2021/05/05 12:34:08;;;;;;;3.40;1.20;;;24.10;30.40;;;;;;5010621;28;20029;-60
2021/05/05 12:36:51;;;;;;;2.00;0.80;;;24.10;30.30;;;;;;5003884;28;20037;-64
2021/05/05 12:39:19;;;;;;;2.70;1.00;;;24.10;30.30;;;;;;5004217;28;20112;-61
2021/05/05 12:41:47;;;;;;;2.67;1.00;;;24.20;30.30;;;;;;5007994;28;20026;-62
2021/05/05 12:44:15;;;;;;;2.63;0.82;;;24.20;30.20;;;;;;5010670;28;20026;-56
2021/05/05 12:46:58;;;;;;;3.17;0.98;;;24.20;30.20;;;;;;5007620;28;20103;-60
2021/05/05 12:49:37;;;;;;;2.38;0.95;;;24.20;30.20;;;;;;5010289;28;20058;-57
2021/05/05 12:52:27;;;;;;;2.08;0.82;;;24.30;30.20;;;;;;5011003;28;20040;-60
2021/05/05 12:54:56;;;;;;;3.40;1.05;;;24.30;30.00;;;;;;5008299;28;20116;-60
2021/05/05 12:57:25;;;;;;;2.17;1.02;;;24.30;30.00;;;;;;5012025;28;20057;-62
2021/05/05 12:59:55;;;;;;;2.63;1.00;;;24.30;30.00;;;;;;5009562;28;20517;-61
2021/05/05 13:02:28;;;;;;;3.15;1.00;;;24.30;29.90;;;;;;5008549;28;20401;-58
2021/05/05 13:05:08;;;;;;;2.25;0.88;;;24.40;29.80;;;;;;5007953;28;20378;-59
2021/05/05 13:07:42;;;;;;;2.83;0.93;;;24.40;29.70;;;;;;5003783;28;20119;-59
2021/05/05 13:10:20;;;;;;;2.03;0.73;;;24.40;29.60;;;;;;5009962;28;20034;-61
2021/05/05 13:13:04;;;;;;;2.45;0.90;;;24.40;29.40;;;;;;5006461;28;20363;-59